Terminal Aerodrome Forecast
Issued by NWS

Home | Current Version | Previous Version | Text Only | Print | Product List | Glossary On
Versions: 1 2 3 4 5 6 7 8 9 10 11 12 13 14 15 16 17
096
FTUS43 KGRB 031525 AAB
TAFMTW
TAF AMD
KMTW 031525Z 0315/0412 35008KT 6SM -SN BR BKN008 OVC020
     FM031600 35008KT 1 1/2SM -SN OVC007
      TEMPO 0316/0318 1/2SM SN OVC003
     FM032000 33013G18KT 6SM -SHSN BR BKN012 OVC025
     FM032100 32014G20KT P6SM -SHSN SCT015 BKN025
     FM032300 31010KT P6SM SCT025 BKN040=

USA.gov is the U.S. government's official web portal to all federal, state and local government web resources and services.